Time;durP1;ratioP1;P1;durP2;ratioP2;P2;SDS_P1;SDS_P2;PMS_P1;PMS_P2;Temp;Humidity;BMP_temperature;BMP_pressure;BME280_temperature;BME280_humidity;BME280_pressure;Samples;Min_cycle;Max_cycle;Signal;HPM_P1;HPM_P2
2022/01/30 00:00:22;;;;;;;25.48;3.97;;;;;;;6.87;88.42;102841.50;5100746;28;20486;-73
2022/01/30 00:02:47;;;;;;;20.58;3.25;;;;;;;6.82;88.00;102842.91;5103840;28;20020;-72
2022/01/30 00:05:13;;;;;;;28.90;5.93;;;;;;;6.81;87.51;102846.31;5077066;28;20024;-72
2022/01/30 00:07:38;;;;;;;29.80;5.40;;;;;;;6.79;87.20;102845.34;5097638;28;20068;-73
2022/01/30 00:10:07;;;;;;;38.55;4.80;;;;;;;6.79;87.01;102845.34;5084655;28;20081;-73
2022/01/30 00:12:48;;;;;;;30.25;3.90;;;;;;;6.77;87.15;102849.53;5093147;28;20027;-73
2022/01/30 00:15:15;;;;;;;29.40;4.50;;;;;;;6.75;87.41;102845.16;5109219;28;20459;-73
2022/01/30 00:17:48;;;;;;;29.27;4.28;;;;;;;6.73;87.64;102841.50;5098055;28;20079;-73
2022/01/30 00:20:20;;;;;;;33.63;3.70;;;;;;;6.71;88.06;102848.34;5093340;28;20028;-73
2022/01/30 00:22:52;;;;;;;28.33;4.22;;;;;;;6.71;89.14;102850.06;5094892;28;20040;-73
2022/01/30 00:25:28;;;;;;;28.38;4.65;;;;;;;6.65;90.41;102857.53;5104368;28;20051;-74
2022/01/30 00:28:04;;;;;;;29.63;4.45;;;;;;;6.61;91.45;102866.88;5097753;28;20050;-73
2022/01/30 00:30:34;;;;;;;26.63;4.43;;;;;;;6.61;91.96;102872.09;5089475;28;20020;-73
2022/01/30 00:33:00;;;;;;;36.28;4.65;;;;;;;6.62;92.59;102878.22;5090837;28;20043;-72
2022/01/30 00:35:25;;;;;;;27.30;4.28;;;;;;;6.53;93.41;102873.31;5099841;28;20555;-73
2022/01/30 00:37:51;;;;;;;31.40;4.45;;;;;;;6.52;93.35;102876.72;5104663;28;20036;-73
2022/01/30 00:40:16;;;;;;;31.15;4.85;;;;;;;6.51;93.17;102880.13;5110663;28;20055;-72
2022/01/30 00:42:41;;;;;;;32.72;3.20;;;;;;;6.49;93.10;102881.75;5117423;28;20030;-72
2022/01/30 00:45:07;;;;;;;30.25;3.92;;;;;;;6.50;93.25;102879.25;5101408;28;20103;-73
2022/01/30 00:47:32;;;;;;;23.52;3.90;;;;;;;6.47;92.60;102884.28;5116995;28;20069;-73
2022/01/30 00:49:58;;;;;;;30.45;3.55;;;;;;;6.49;91.45;102887.00;5080975;28;20036;-73
2022/01/30 00:52:23;;;;;;;27.98;4.40;;;;;;;6.50;90.99;102880.97;5083482;28;20028;-72
2022/01/30 00:54:49;;;;;;;27.10;4.30;;;;;;;6.46;90.88;102876.31;5088247;28;20464;-75
2022/01/30 00:57:15;;;;;;;22.98;3.75;;;;;;;6.46;90.81;102876.31;5105070;28;20156;-72
2022/01/30 00:59:40;;;;;;;28.27;3.28;;;;;;;6.43;91.10;102882.28;5107491;27;20484;-73
2022/01/30 01:02:06;;;;;;;28.27;4.22;;;;;;;6.43;90.61;102873.50;5098377;28;20023;-73
2022/01/30 01:04:31;;;;;;;33.42;4.15;;;;;;;6.41;91.30;102869.06;5080323;28;20031;-73
2022/01/30 01:06:56;;;;;;;26.50;4.97;;;;;;;6.37;91.54;102882.75;5096184;28;20028;-72
2022/01/30 01:09:28;;;;;;;30.08;3.97;;;;;;;6.39;91.35;102886.38;5099687;28;20035;-73
2022/01/30 01:12:23;;;;;;;27.75;3.60;;;;;;;6.37;91.42;102890.59;5085600;28;20402;-73
2022/01/30 01:25:35;;;;;;;33.17;4.22;;;;;;;6.34;90.70;102893.00;5081698;28;20047;-73
2022/01/30 01:28:00;;;;;;;34.08;4.22;;;;;;;6.34;90.55;102892.13;5099589;28;20020;-73
2022/01/30 01:30:25;;;;;;;29.13;3.97;;;;;;;6.31;90.10;102898.03;5081997;28;20115;-73
2022/01/30 01:32:51;;;;;;;30.50;4.20;;;;;;;6.33;89.52;102896.41;5085126;28;20365;-73
2022/01/30 01:35:17;;;;;;;30.23;4.70;;;;;;;6.39;89.40;102896.84;5099911;28;20028;-73
2022/01/30 01:37:42;;;;;;;29.02;3.83;;;;;;;6.36;89.20;102893.09;5108251;28;20027;-73
2022/01/30 01:40:08;;;;;;;20.02;3.00;;;;;;;6.37;89.54;102893.19;5099160;28;20031;-73
2022/01/30 01:42:36;;;;;;;25.20;3.45;;;;;;;6.38;89.27;102892.41;5099209;28;20112;-73
2022/01/30 01:45:02;;;;;;;24.30;3.00;;;;;;;6.36;88.76;102896.66;5081427;28;20020;-72
2022/01/30 01:47:31;;;;;;;23.73;3.60;;;;;;;6.36;88.02;102891.41;5102834;28;20110;-73
2022/01/30 01:49:57;;;;;;;31.95;4.40;;;;;;;6.34;87.19;102906.06;5107762;28;20380;-72
2022/01/30 01:52:25;;;;;;;24.67;4.07;;;;;;;6.34;87.07;102900.84;5103279;28;20030;-72
2022/01/30 01:54:52;;;;;;;27.88;3.08;;;;;;;6.33;87.13;102901.66;5098957;28;20395;-73
2022/01/30 01:57:18;;;;;;;23.35;2.88;;;;;;;6.31;87.29;102905.88;5085805;28;20526;-73
2022/01/30 01:59:45;;;;;;;22.67;3.15;;;;;;;6.34;88.10;102908.69;5087258;28;20054;-73
2022/01/30 02:02:10;;;;;;;26.15;3.70;;;;;;;6.35;88.28;102915.75;5098197;28;20032;-73
2022/01/30 02:04:38;;;;;;;29.48;4.28;;;;;;;6.40;88.56;102911.72;5102710;28;20020;-74
2022/01/30 02:08:14;;;;;;;27.17;3.35;;;;;;;6.47;88.70;102909.50;5106522;28;20023;-73
2022/01/30 02:09:50;;;;;;;25.42;3.75;;;;;;;6.54;89.08;102927.44;5090589;28;20051;-73
2022/01/30 02:12:44;;;;;;;29.05;4.15;;;;;;;6.56;89.66;102926.72;5100008;28;20092;-72
2022/01/30 02:25:58;;;;;;;21.27;3.23;;;;;;;6.22;90.85;102915.72;5106908;28;19926;-72
2022/01/30 02:28:26;;;;;;;22.05;2.88;;;;;;;6.15;91.03;102921.34;5101598;28;20295;-72
2022/01/30 02:30:59;;;;;;;20.77;3.10;;;;;;;6.08;91.88;102931.34;5097397;28;20020;-72
2022/01/30 02:33:25;;;;;;;22.02;3.17;;;;;;;6.05;92.21;102931.16;5077929;28;20129;-73
2022/01/30 02:35:51;;;;;;;22.02;2.83;;;;;;;6.01;93.44;102923.91;5101129;28;20103;-72
2022/01/30 02:38:19;;;;;;;21.52;3.40;;;;;;;6.04;94.10;102926.72;5088009;28;20379;-73
2022/01/30 02:40:47;;;;;;;15.25;3.17;;;;;;;6.03;94.76;102921.41;5099137;28;20022;-74
2022/01/30 02:43:15;;;;;;;24.83;3.30;;;;;;;5.96;96.12;102925.25;5099517;28;20047;-73
2022/01/30 02:45:48;;;;;;;22.45;3.40;;;;;;;5.88;96.08;102918.59;5087178;28;20122;-73
2022/01/30 02:48:18;;;;;;;33.55;4.80;;;;;;;5.83;96.30;102912.13;5096556;28;20019;-73
2022/01/30 02:50:54;;;;;;;21.88;3.95;;;;;;;5.81;94.64;102913.75;5095717;28;20027;-73
2022/01/30 02:53:29;;;;;;;23.27;3.08;;;;;;;5.84;93.72;102913.97;5100252;28;20027;-73
2022/01/30 02:55:54;;;;;;;18.15;3.22;;;;;;;5.84;93.91;102913.97;5103316;28;20452;-72
2022/01/30 02:58:20;;;;;;;16.88;2.20;;;;;;;5.85;93.98;102915.78;5093268;28;20051;-73
2022/01/30 03:00:45;;;;;;;25.77;3.88;;;;;;;5.92;92.99;102915.41;5098760;28;20119;-73
2022/01/30 03:03:10;;;;;;;16.17;2.42;;;;;;;6.01;91.97;102913.44;5096871;28;20028;-73
2022/01/30 03:05:35;;;;;;;19.98;4.50;;;;;;;6.08;91.58;102910.44;5105276;28;20020;-72
2022/01/30 03:08:01;;;;;;;23.55;3.38;;;;;;;6.11;91.19;102914.97;5096964;28;20027;-72
2022/01/30 03:10:26;;;;;;;23.95;3.50;;;;;;;6.12;90.79;102911.56;5096841;28;20895;-73
2022/01/30 03:12:51;;;;;;;19.38;3.45;;;;;;;6.08;91.07;102914.78;5083632;28;20042;-73
2022/01/30 03:15:17;;;;;;;15.55;3.30;;;;;;;6.04;91.91;102913.66;5082031;28;20032;-72
2022/01/30 03:17:42;;;;;;;20.52;3.72;;;;;;;6.02;92.82;102923.13;5104442;28;20024;-72
2022/01/30 03:20:09;;;;;;;22.98;3.25;;;;;;;6.01;93.01;102928.22;5080326;28;20475;-73
2022/01/30 03:22:34;;;;;;;21.95;3.38;;;;;;;5.98;92.69;102928.94;5098732;28;20127;-73
2022/01/30 03:25:00;;;;;;;31.63;3.50;;;;;;;5.93;92.99;102940.72;5097138;28;20106;-73
2022/01/30 03:27:25;;;;;;;33.20;4.15;;;;;;;5.94;92.16;102939.94;5084572;28;20043;-73
2022/01/30 03:30:02;;;;;;;25.08;2.88;;;;;;;5.93;92.07;102945.97;5099133;28;20012;-73
2022/01/30 03:32:27;;;;;;;20.77;3.10;;;;;;;6.04;90.57;102954.56;5093257;28;20036;-72
2022/01/30 03:34:52;;;;;;;24.75;2.58;;;;;;;6.14;90.23;102963.94;5099142;28;20035;-73
2022/01/30 03:37:17;;;;;;;19.17;3.47;;;;;;;6.15;89.62;102950.97;5075271;28;20126;-73
2022/01/30 03:39:43;;;;;;;23.75;3.38;;;;;;;6.17;88.75;102951.09;5082665;28;20023;-72
2022/01/30 03:42:08;;;;;;;23.17;2.58;;;;;;;6.16;87.47;102944.97;5099601;28;20036;-72
2022/01/30 03:44:34;;;;;;;15.63;2.33;;;;;;;6.20;85.97;102948.66;5104255;28;20490;-73
2022/01/30 03:46:59;;;;;;;18.67;2.05;;;;;;;6.18;83.24;102942.44;5098443;28;20043;-73
2022/01/30 03:49:24;;;;;;;20.52;2.95;;;;;;;6.13;82.69;102934.31;5097081;28;20116;-73
2022/01/30 03:51:50;;;;;;;15.68;2.83;;;;;;;6.04;83.36;102939.78;5081860;28;20508;-73
2022/01/30 03:54:15;;;;;;;15.25;2.80;;;;;;;5.96;83.70;102940.94;5092460;28;20043;-73
2022/01/30 03:56:40;;;;;;;21.83;2.97;;;;;;;5.91;83.79;102937.09;5098421;28;20048;-72
2022/01/30 03:59:06;;;;;;;25.05;3.95;;;;;;;5.88;84.06;102948.22;5096801;28;20020;-72
2022/01/30 04:01:31;;;;;;;18.33;3.15;;;;;;;5.87;84.95;102945.50;5077430;28;20039;-73
2022/01/30 04:03:57;;;;;;;22.40;2.20;;;;;;;5.90;85.67;102948.34;5079667;28;20035;-73
2022/01/30 04:06:23;;;;;;;9.20;2.05;;;;;;;5.97;85.70;102945.38;5096253;28;20421;-73
2022/01/30 04:08:48;;;;;;;24.23;3.15;;;;;;;6.02;86.06;102946.63;5097881;28;20065;-73
2022/01/30 04:11:14;;;;;;;16.38;2.50;;;;;;;6.07;86.50;102945.22;5093006;28;20020;-74
2022/01/30 04:13:39;;;;;;;17.08;4.10;;;;;;;6.08;87.26;102949.66;5074524;28;20400;-73
2022/01/30 04:16:05;;;;;;;21.33;2.88;;;;;;;6.10;88.12;102954.09;5093207;28;20016;-73
2022/01/30 04:18:31;;;;;;;19.92;2.10;;;;;;;6.11;88.45;102953.28;5097533;28;20139;-72
2022/01/30 04:20:56;;;;;;;21.77;2.72;;;;;;;6.10;88.98;102954.09;5094726;28;20429;-73
2022/01/30 04:23:21;;;;;;;20.42;2.70;;;;;;;6.13;89.15;102946.44;5099624;28;20027;-74
2022/01/30 04:25:48;;;;;;;25.23;3.78;;;;;;;6.08;89.13;102952.25;5080960;28;20045;-72
2022/01/30 04:28:13;;;;;;;18.90;2.50;;;;;;;6.02;89.63;102945.72;5093885;28;20035;-72
2022/01/30 04:30:39;;;;;;;27.05;3.45;;;;;;;5.96;88.02;102947.88;5080924;28;20364;-72
2022/01/30 04:33:04;;;;;;;27.23;4.65;;;;;;;5.91;88.16;102952.75;5086215;28;20032;-72
2022/01/30 04:35:30;;;;;;;16.73;2.70;;;;;;;5.86;87.59;102960.31;5100046;28;20059;-73
2022/01/30 04:40:47;;;;;;;19.13;3.25;;;;;;;5.74;86.73;102960.34;5100009;28;20032;-73
2022/01/30 05:02:31;;;;;;;26.80;2.95;;;;;;;5.54;87.10;102977.19;5098729;28;20043;-74
2022/01/30 05:09:49;;;;;;;18.45;3.58;;;;;;;5.46;87.86;102988.81;5095375;28;20471;-73
2022/01/30 05:12:16;;;;;;;24.67;2.97;;;;;;;5.47;87.53;102989.72;5082697;28;20032;-73
2022/01/30 05:14:42;;;;;;;27.58;4.22;;;;;;;5.46;87.06;102985.28;5102648;28;20416;-73
2022/01/30 05:17:07;;;;;;;20.60;2.45;;;;;;;5.44;88.14;102994.69;5094020;28;20040;-73
2022/01/30 05:19:33;;;;;;;24.50;3.38;;;;;;;5.43;87.95;102993.81;5099150;28;20767;-73
2022/01/30 05:21:59;;;;;;;23.35;3.28;;;;;;;5.43;87.55;102999.03;5103099;28;20024;-72
2022/01/30 05:24:24;;;;;;;27.55;3.05;;;;;;;5.43;88.41;103003.34;5098427;28;20023;-72
2022/01/30 05:26:51;;;;;;;18.77;2.58;;;;;;;5.39;87.59;103000.50;5100474;28;20047;-72
2022/01/30 05:29:16;;;;;;;26.88;2.80;;;;;;;5.38;87.65;103006.50;5100287;28;20035;-73
2022/01/30 05:31:42;;;;;;;21.67;3.25;;;;;;;5.38;87.52;103008.22;5103860;28;20043;-73
2022/01/30 05:34:09;;;;;;;12.90;2.50;;;;;;;5.35;87.01;103011.53;5097849;28;20423;-73
2022/01/30 05:36:40;;;;;;;24.55;3.15;;;;;;;5.39;86.82;103012.66;5102950;28;20050;-73
2022/01/30 05:39:06;;;;;;;18.05;3.95;;;;;;;5.36;86.92;103029.00;5102425;28;20024;-73
2022/01/30 05:41:33;;;;;;;23.20;3.55;;;;;;;5.36;86.95;103039.44;5079902;28;20032;-73
2022/01/30 05:44:11;;;;;;;19.45;2.85;;;;;;;5.32;87.84;103042.63;5100530;28;20439;-74
2022/01/30 05:46:48;;;;;;;16.33;3.58;;;;;;;5.29;88.43;103045.03;5082487;28;20490;-73
2022/01/30 05:49:15;;;;;;;25.80;3.85;;;;;;;5.28;88.18;103052.75;5097371;28;20044;-73
2022/01/30 05:51:41;;;;;;;23.38;3.17;;;;;;;5.29;88.22;103052.84;5105533;28;20031;-73
2022/01/30 05:54:07;;;;;;;27.45;3.70;;;;;;;5.37;87.53;103051.72;5101629;28;20485;-73
2022/01/30 05:56:33;;;;;;;17.63;3.00;;;;;;;5.47;87.43;103060.22;5096354;28;20020;-73
2022/01/30 05:58:59;;;;;;;23.02;2.95;;;;;;;5.50;86.77;103069.16;5079436;28;20032;-73
2022/01/30 06:01:25;;;;;;;18.85;4.30;;;;;;;5.50;86.94;103066.56;5099908;28;20032;-74
2022/01/30 06:03:50;;;;;;;23.67;4.07;;;;;;;5.50;87.16;103071.78;5096861;28;21440;-73
2022/01/30 06:06:15;;;;;;;21.63;3.13;;;;;;;5.48;87.33;103072.47;5094746;28;20107;-72
2022/01/30 06:08:56;;;;;;;18.88;2.65;;;;;;;5.49;88.14;103071.69;5084009;28;20020;-73
2022/01/30 06:11:22;;;;;;;23.20;3.90;;;;;;;5.47;87.20;103074.19;5104960;28;20079;-73
2022/01/30 06:13:47;;;;;;;22.55;3.20;;;;;;;5.42;87.57;103070.31;5083495;28;20032;-73
2022/01/30 06:16:12;;;;;;;23.17;3.72;;;;;;;5.39;87.06;103076.22;5099071;28;20032;-73
2022/01/30 06:18:38;;;;;;;24.35;3.40;;;;;;;5.36;86.96;103076.00;5106273;28;20031;-72
2022/01/30 06:21:03;;;;;;;24.45;3.22;;;;;;;5.37;86.53;103077.81;5104268;28;20059;-73
2022/01/30 06:23:28;;;;;;;25.83;4.07;;;;;;;5.34;86.93;103077.56;5083819;28;20020;-74
2022/01/30 06:25:54;;;;;;;25.23;3.90;;;;;;;5.31;86.51;103082.56;5097414;28;20032;-74
2022/01/30 06:28:20;;;;;;;20.20;3.10;;;;;;;5.21;87.09;103081.00;5100784;28;20089;-71
2022/01/30 06:30:45;;;;;;;36.45;4.30;;;;;;;5.17;86.77;103088.50;5099732;28;20111;-72
2022/01/30 06:33:10;;;;;;;23.38;3.67;;;;;;;5.15;86.47;103087.44;5099309;28;20028;-73
2022/01/30 06:35:36;;;;;;;17.73;2.75;;;;;;;5.08;86.94;103091.31;5094248;28;20024;-73
2022/01/30 06:38:02;;;;;;;27.58;3.92;;;;;;;5.07;87.18;103090.41;5100690;28;20038;-73
2022/01/30 06:40:27;;;;;;;26.65;3.90;;;;;;;5.12;87.09;103089.84;5094576;28;20069;-73
2022/01/30 06:42:53;;;;;;;38.33;4.05;;;;;;;5.09;87.65;103095.72;5096770;28;20032;-73
2022/01/30 06:45:19;;;;;;;32.03;3.08;;;;;;;5.02;87.94;103091.75;5084496;28;20378;-73
2022/01/30 06:47:45;;;;;;;17.70;2.88;;;;;;;5.04;87.60;103092.75;5103270;28;20106;-72
2022/01/30 06:50:12;;;;;;;24.08;3.45;;;;;;;5.01;87.29;103095.16;5098721;28;20056;-72
2022/01/30 06:52:38;;;;;;;21.02;3.58;;;;;;;5.00;87.29;103090.72;5084374;28;20425;-73
2022/01/30 06:55:05;;;;;;;32.20;4.95;;;;;;;4.98;87.14;103088.78;5098896;28;20029;-73
2022/01/30 06:57:31;;;;;;;23.15;3.17;;;;;;;5.01;86.57;103089.03;5097233;28;20109;-73
2022/01/30 06:59:57;;;;;;;24.95;4.03;;;;;;;5.01;86.23;103084.72;5105155;28;20040;-73
2022/01/30 07:02:22;;;;;;;31.40;4.03;;;;;;;5.00;86.17;103082.88;5098557;28;20069;-72
2022/01/30 07:04:48;;;;;;;27.25;4.05;;;;;;;4.91;87.29;103084.81;5100636;27;20024;-73
2022/01/30 07:07:14;;;;;;;22.95;4.30;;;;;;;4.83;87.20;103096.34;5098664;28;20020;-74
2022/01/30 07:09:39;;;;;;;18.85;3.10;;;;;;;4.87;86.64;103106.22;5080805;28;20028;-74
2022/01/30 07:12:05;;;;;;;30.02;3.50;;;;;;;4.89;86.71;103112.47;5099817;28;20054;-73
2022/01/30 07:14:31;;;;;;;27.25;3.53;;;;;;;4.87;87.04;103119.25;5079671;28;20077;-72
2022/01/30 07:16:56;;;;;;;32.88;4.63;;;;;;;4.86;86.44;103125.28;5099006;28;20032;-72
2022/01/30 07:19:22;;;;;;;29.83;4.55;;;;;;;4.89;86.65;103123.81;5099383;28;20494;-72
2022/01/30 07:21:47;;;;;;;26.38;3.65;;;;;;;4.90;86.20;103129.97;5095408;28;20096;-73
2022/01/30 07:24:12;;;;;;;18.30;3.38;;;;;;;4.96;86.54;103134.72;5079982;28;20077;-74
2022/01/30 07:26:38;;;;;;;28.35;4.70;;;;;;;4.98;86.75;103143.56;5100016;28;20023;-73
2022/01/30 07:29:04;;;;;;;29.48;5.47;;;;;;;4.99;86.87;103146.31;5094795;28;20109;-74
2022/01/30 07:31:31;;;;;;;24.75;3.35;;;;;;;5.07;86.18;103150.44;5098900;28;20106;-73
2022/01/30 07:33:56;;;;;;;25.60;4.25;;;;;;;5.16;86.33;103138.88;5097457;28;20028;-73
2022/01/30 07:36:22;;;;;;;24.02;3.88;;;;;;;5.17;86.57;103146.81;5100876;28;20032;-73
2022/01/30 07:38:48;;;;;;;20.25;3.28;;;;;;;5.21;86.87;103143.63;5094281;28;20076;-72
2022/01/30 07:41:13;;;;;;;29.67;3.80;;;;;;;5.29;86.88;103140.69;5106066;28;20095;-72
2022/01/30 07:43:38;;;;;;;39.78;4.78;;;;;;;5.33;86.72;103141.03;5094736;28;20115;-72
2022/01/30 07:46:04;;;;;;;38.95;5.13;;;;;;;5.38;86.04;103134.44;5075817;28;20020;-72
2022/01/30 07:48:30;;;;;;;35.50;3.95;;;;;;;5.43;86.63;103140.03;5084178;28;20040;-72
2022/01/30 07:50:55;;;;;;;23.98;3.72;;;;;;;5.47;86.39;103136.84;5080564;28;20428;-72
2022/01/30 07:53:21;;;;;;;39.47;4.30;;;;;;;5.49;86.83;103136.97;5086336;28;20034;-72
2022/01/30 07:55:46;;;;;;;32.80;4.15;;;;;;;5.55;85.84;103135.72;5099855;28;20117;-72
2022/01/30 07:58:12;;;;;;;24.25;4.20;;;;;;;5.65;85.50;103137.28;5103968;28;20076;-72
2022/01/30 08:00:38;;;;;;;26.55;4.25;;;;;;;5.70;85.70;103137.66;5121475;27;20023;-73
2022/01/30 08:03:04;;;;;;;30.77;4.35;;;;;;;5.78;85.07;103141.72;5099045;28;20115;-74
2022/01/30 08:05:29;;;;;;;28.50;4.15;;;;;;;5.85;85.07;103138.75;5091750;28;20547;-73
2022/01/30 08:07:54;;;;;;;27.52;6.28;;;;;;;5.86;85.76;103145.81;5093485;28;20499;-72
2022/01/30 08:10:20;;;;;;;31.88;4.70;;;;;;;5.86;85.81;103148.44;5093980;28;20518;-72
2022/01/30 08:12:45;;;;;;;30.30;4.03;;;;;;;5.88;86.51;103149.44;5093250;28;20032;-73
2022/01/30 08:15:11;;;;;;;31.23;5.10;;;;;;;5.91;86.37;103146.13;5087515;28;20034;-73
2022/01/30 08:17:37;;;;;;;32.70;4.47;;;;;;;5.94;86.42;103151.59;5093291;28;20063;-74
2022/01/30 08:20:05;;;;;;;21.25;3.70;;;;;;;5.96;86.63;103149.09;5093082;28;20019;-72
2022/01/30 08:22:31;;;;;;;28.55;4.15;;;;;;;5.98;86.51;103153.69;5103574;28;20061;-72
2022/01/30 08:24:57;;;;;;;40.55;4.25;;;;;;;6.03;85.54;103156.63;5075076;28;20031;-73
2022/01/30 08:27:22;;;;;;;23.63;4.30;;;;;;;6.08;85.66;103161.38;5101661;28;20467;-72
2022/01/30 08:29:48;;;;;;;20.38;3.58;;;;;;;6.08;86.03;103160.47;5097444;28;20044;-73
2022/01/30 08:32:13;;;;;;;31.95;4.30;;;;;;;6.12;86.34;103166.81;5108033;28;20047;-74
2022/01/30 08:34:41;;;;;;;22.05;3.42;;;;;;;6.14;86.24;103160.91;5108348;28;20027;-73
2022/01/30 08:37:07;;;;;;;27.67;3.90;;;;;;;6.15;86.35;103169.66;5092487;28;20483;-73
2022/01/30 08:39:33;;;;;;;25.50;4.25;;;;;;;6.17;87.10;103170.66;5104571;28;20089;-72
2022/01/30 08:41:58;;;;;;;31.40;3.97;;;;;;;6.23;86.94;103163.28;5098570;28;20055;-72
2022/01/30 08:44:24;;;;;;;28.98;3.65;;;;;;;6.27;86.61;103156.53;5094165;28;20036;-72
2022/01/30 08:46:49;;;;;;;27.58;6.03;;;;;;;6.31;87.04;103158.59;5100211;28;20106;-72
2022/01/30 08:49:14;;;;;;;31.98;3.88;;;;;;;6.35;85.91;103161.53;5094859;28;20048;-73
2022/01/30 08:51:40;;;;;;;20.15;4.72;;;;;;;6.36;86.49;103162.44;5097302;28;20063;-73
2022/01/30 08:54:05;;;;;;;36.20;4.93;;;;;;;6.38;86.05;103155.63;5076379;28;20476;-72
2022/01/30 08:56:31;;;;;;;29.73;4.25;;;;;;;6.38;85.85;103158.25;5101678;28;20069;-72
2022/01/30 08:58:57;;;;;;;22.90;4.90;;;;;;;6.44;86.06;103152.53;5110650;27;20106;-72
2022/01/30 09:01:23;;;;;;;18.90;3.67;;;;;;;6.52;85.60;103164.44;5104659;27;20031;-73
2022/01/30 09:03:49;;;;;;;24.23;3.80;;;;;;;6.63;85.44;103159.97;5099956;28;20031;-73
2022/01/30 09:06:14;;;;;;;32.85;3.78;;;;;;;6.69;83.89;103157.78;5109806;28;20117;-72
2022/01/30 09:08:39;;;;;;;34.03;4.43;;;;;;;6.79;83.37;103159.34;5080388;28;20093;-73
2022/01/30 09:11:05;;;;;;;23.35;3.63;;;;;;;6.90;82.58;103163.59;5099732;28;20024;-72
2022/01/30 09:13:31;;;;;;;29.10;4.60;;;;;;;6.99;82.79;103174.69;5106032;28;20067;-72
2022/01/30 09:15:58;;;;;;;33.03;5.78;;;;;;;7.02;82.04;103174.91;5105348;28;20077;-73
2022/01/30 09:18:26;;;;;;;30.33;4.60;;;;;;;7.09;81.77;103189.31;5092733;28;20487;-72
2022/01/30 09:20:51;;;;;;;36.17;4.53;;;;;;;7.20;80.98;103190.06;5079335;28;20077;-72
2022/01/30 09:23:16;;;;;;;29.30;4.55;;;;;;;7.26;80.62;103200.97;5100602;28;20122;-73
2022/01/30 09:25:42;;;;;;;30.85;4.00;;;;;;;7.40;80.33;103194.94;5102520;28;20120;-72
2022/01/30 09:28:07;;;;;;;30.40;4.22;;;;;;;7.52;79.70;103196.59;5084536;28;20492;-73
2022/01/30 09:30:34;;;;;;;24.52;3.75;;;;;;;7.74;79.69;103199.81;5099666;28;20398;-73
2022/01/30 09:32:59;;;;;;;22.25;3.35;;;;;;;8.13;78.13;103198.81;5098371;28;20034;-73
2022/01/30 09:35:25;;;;;;;26.70;3.70;;;;;;;8.36;77.95;103201.19;5103065;28;20134;-72
2022/01/30 09:37:51;;;;;;;21.00;3.70;;;;;;;8.34;77.72;103197.56;5104990;28;20042;-77
2022/01/30 09:40:17;;;;;;;20.67;3.60;;;;;;;8.55;77.12;103199.75;5103020;28;20027;-77
2022/01/30 09:42:45;;;;;;;26.67;4.32;;;;;;;8.85;77.42;103198.13;5078287;28;20503;-77
2022/01/30 09:45:11;;;;;;;21.05;3.78;;;;;;;9.24;76.01;103189.97;5077972;28;20030;-77
2022/01/30 09:47:37;;;;;;;30.23;3.60;;;;;;;9.19;75.75;103199.28;5091135;28;20036;-77
2022/01/30 09:50:04;;;;;;;26.25;3.45;;;;;;;8.88;76.02;103194.78;5101459;28;20053;-77
2022/01/30 09:52:30;;;;;;;33.25;4.60;;;;;;;8.43;77.24;103200.75;5082142;28;20510;-77
2022/01/30 09:54:55;;;;;;;28.58;5.30;;;;;;;8.32;79.41;103204.41;5079722;28;20060;-77
2022/01/30 09:57:21;;;;;;;29.00;3.90;;;;;;;8.60;79.15;103200.97;5102562;28;20058;-76
2022/01/30 09:59:46;;;;;;;23.88;4.43;;;;;;;9.03;76.95;103203.59;5096834;28;20044;-77
2022/01/30 10:02:13;;;;;;;27.13;3.63;;;;;;;9.42;76.72;103196.28;5097263;28;20016;-76
2022/01/30 10:04:39;;;;;;;31.70;4.65;;;;;;;9.26;75.22;103206.72;5109576;28;20494;-76
2022/01/30 10:07:14;;;;;;;24.27;3.67;;;;;;;9.05;75.18;103195.84;5109266;28;20016;-75
2022/01/30 10:09:49;;;;;;;26.58;4.00;;;;;;;8.86;76.44;103193.81;5078900;28;20028;-76
2022/01/30 10:12:23;;;;;;;22.52;3.35;;;;;;;8.94;76.00;103198.69;5080192;28;20032;-78
2022/01/30 10:14:48;;;;;;;23.85;4.60;;;;;;;9.07;75.82;103210.84;5098165;28;20028;-78
2022/01/30 10:17:40;;;;;;;29.70;5.03;;;;;;;9.47;75.09;103206.16;5096698;28;20085;-78
2022/01/30 10:20:08;;;;;;;18.27;3.63;;;;;;;9.87;73.47;103203.25;5103634;28;20043;-77
2022/01/30 10:22:37;;;;;;;27.67;4.35;;;;;;;10.13;72.78;103207.34;5084314;28;20028;-78
2022/01/30 10:25:03;;;;;;;20.50;4.28;;;;;;;10.27;71.09;103205.53;5095956;28;20101;-77
2022/01/30 10:27:29;;;;;;;23.10;3.90;;;;;;;10.07;71.37;103210.56;5090544;28;20035;-76
2022/01/30 10:30:06;;;;;;;27.00;4.57;;;;;;;9.76;72.17;103211.41;5097139;28;20034;-77
2022/01/30 10:32:32;;;;;;;25.73;3.95;;;;;;;9.61;71.59;103215.78;5077766;28;20036;-77
2022/01/30 10:35:01;;;;;;;26.38;4.45;;;;;;;9.39;73.36;103213.63;5077160;28;20032;-77
2022/01/30 10:37:27;;;;;;;27.35;5.07;;;;;;;8.99;74.38;103219.09;5095085;28;20030;-77
2022/01/30 10:40:14;;;;;;;31.63;4.82;;;;;;;9.02;76.09;103222.81;5078159;28;20394;-76
2022/01/30 10:42:49;;;;;;;22.73;4.53;;;;;;;9.84;73.75;103216.22;5097313;28;20463;-77
2022/01/30 10:45:26;;;;;;;20.40;3.75;;;;;;;10.55;70.45;103209.69;5105309;28;20032;-76
2022/01/30 10:48:08;;;;;;;24.25;4.15;;;;;;;10.70;67.26;103202.66;5100131;28;20073;-77
2022/01/30 10:50:33;;;;;;;21.70;3.83;;;;;;;10.21;65.43;103194.66;5104174;28;20051;-76
2022/01/30 10:53:03;;;;;;;29.02;4.13;;;;;;;9.76;66.73;103203.53;5097198;28;20024;-77
2022/01/30 10:55:32;;;;;;;27.52;4.18;;;;;;;9.52;69.10;103209.97;5084917;28;20524;-77
2022/01/30 10:58:01;;;;;;;25.35;4.32;;;;;;;9.27;70.32;103214.69;5086139;28;20486;-78
2022/01/30 11:00:42;;;;;;;21.88;3.92;;;;;;;9.48;70.93;103211.50;5078968;28;20475;-77
2022/01/30 11:03:10;;;;;;;22.38;3.47;;;;;;;10.19;70.42;103214.72;5078417;28;20031;-76
2022/01/30 11:05:56;;;;;;;25.08;4.10;;;;;;;10.73;64.81;103199.25;5098055;28;20028;-78
2022/01/30 11:08:23;;;;;;;24.33;4.00;;;;;;;10.90;65.60;103205.44;5083381;28;20067;-73
2022/01/30 11:10:58;;;;;;;25.40;3.88;;;;;;;11.41;65.24;103221.28;5095534;28;20459;-73
2022/01/30 11:13:32;;;;;;;26.48;4.57;;;;;;;11.28;62.45;103209.19;5078620;28;20027;-73
2022/01/30 11:18:51;;;;;;;26.45;4.47;;;;;;;10.36;64.64;103206.03;5103564;28;20102;-73
2022/01/30 11:21:22;;;;;;;25.40;4.15;;;;;;;9.97;67.05;103221.38;5098891;28;20111;-73
2022/01/30 11:23:51;;;;;;;27.55;4.03;;;;;;;9.73;66.16;103216.50;5082801;28;20036;-73
2022/01/30 11:26:17;;;;;;;25.10;3.90;;;;;;;9.60;67.83;103211.34;5101805;28;20031;-74
2022/01/30 11:28:43;;;;;;;34.38;4.22;;;;;;;9.67;67.98;103218.78;5089937;28;20031;-72
2022/01/30 11:31:09;;;;;;;25.67;3.88;;;;;;;10.36;68.25;103216.56;5078370;28;20476;-72
2022/01/30 11:33:35;;;;;;;25.58;4.55;;;;;;;11.28;64.69;103206.53;5104603;28;20062;-73
2022/01/30 11:36:01;;;;;;;31.90;4.55;;;;;;;11.63;61.67;103191.63;5103334;28;20028;-73
2022/01/30 11:38:27;;;;;;;31.05;4.28;;;;;;;11.11;63.23;103195.16;5101698;27;20078;-72
2022/01/30 11:41:08;;;;;;;29.73;4.53;;;;;;;10.62;65.41;103203.94;5096622;28;20028;-73
2022/01/30 11:43:34;;;;;;;26.60;4.43;;;;;;;10.02;67.35;103206.75;5096693;28;20036;-73
2022/01/30 11:46:15;;;;;;;37.95;6.03;;;;;;;9.64;68.01;103215.97;5100388;28;20015;-72
2022/01/30 11:48:41;;;;;;;25.38;3.67;;;;;;;9.37;67.47;103210.91;5096743;28;20039;-71
2022/01/30 11:51:08;;;;;;;28.40;4.47;;;;;;;9.15;67.38;103202.53;5098285;28;20027;-73
2022/01/30 11:53:33;;;;;;;29.10;4.43;;;;;;;9.02;67.88;103199.19;5100003;28;20023;-72
2022/01/30 11:56:02;;;;;;;27.58;4.10;;;;;;;8.69;68.97;103205.88;5096280;28;20093;-72
2022/01/30 11:58:30;;;;;;;32.65;5.20;;;;;;;8.88;70.21;103205.28;5100962;28;20035;-72
2022/01/30 12:01:03;;;;;;;25.63;4.13;;;;;;;9.88;68.55;103200.72;5092636;28;20032;-72
2022/01/30 12:03:37;;;;;;;29.83;4.10;;;;;;;11.19;64.62;103177.06;5105206;27;20032;-71
2022/01/30 12:06:20;;;;;;;26.35;3.70;;;;;;;12.38;60.44;103170.63;5109571;27;20417;-72
2022/01/30 12:08:51;;;;;;;27.48;5.32;;;;;;;13.17;55.75;103155.63;5108918;28;20034;-72
2022/01/30 12:11:37;;;;;;;25.63;4.03;;;;;;;13.87;53.38;103150.63;5100428;28;20066;-70
2022/01/30 12:14:03;;;;;;;24.50;4.30;;;;;;;13.63;51.88;103151.41;5099475;28;20122;-71
2022/01/30 12:16:51;;;;;;;32.88;5.05;;;;;;;12.50;55.23;103154.44;5096021;28;20133;-71